Time;durP1;ratioP1;P1;durP2;ratioP2;P2;SDS_P1;SDS_P2;PMS_P1;PMS_P2;Temp;Humidity;BMP_temperature;BMP_pressure;BME280_temperature;BME280_humidity;BME280_pressure;Samples;Min_cycle;Max_cycle;Signal;HPM_P1;HPM_P2
2022/03/07 00:02:08;;;;;;;11.20;7.10;;;3.10;72.30;;;;;;5035322;28;20306;-69
2022/03/07 00:04:34;;;;;;;12.00;7.65;;;3.10;72.40;;;;;;5035607;28;20037;-68
2022/03/07 00:06:59;;;;;;;10.05;6.43;;;3.10;72.60;;;;;;5035210;28;20128;-67
2022/03/07 00:09:25;;;;;;;13.60;7.10;;;3.10;72.60;;;;;;5051944;28;20486;-69
2022/03/07 00:11:51;;;;;;;11.82;7.32;;;3.10;72.60;;;;;;5036265;28;20026;-67
2022/03/07 00:14:17;;;;;;;11.17;6.90;;;3.10;72.50;;;;;;5036078;28;20480;-67
2022/03/07 00:16:43;;;;;;;9.73;6.90;;;3.00;72.50;;;;;;5036906;28;20025;-67
2022/03/07 00:19:08;;;;;;;12.43;7.93;;;3.00;72.70;;;;;;5036675;28;20064;-67
2022/03/07 00:21:34;;;;;;;9.43;6.53;;;3.00;72.80;;;;;;5035165;28;20041;-68
2022/03/07 00:24:00;;;;;;;9.13;6.10;;;3.00;72.90;;;;;;5036085;28;20069;-68
2022/03/07 00:26:26;;;;;;;9.82;6.68;;;3.00;73.40;;;;;;5036859;28;20025;-68
2022/03/07 00:28:52;;;;;;;13.55;6.95;;;3.00;73.40;;;;;;5036099;28;20029;-67
2022/03/07 00:31:20;;;;;;;10.90;6.77;;;3.00;73.10;;;;;;5036040;28;20394;-67
2022/03/07 00:33:47;;;;;;;10.45;6.70;;;3.00;73.20;;;;;;5035070;28;20035;-67
2022/03/07 00:36:12;;;;;;;11.00;6.72;;;3.00;73.30;;;;;;5050763;28;20080;-66
2022/03/07 00:38:38;;;;;;;8.53;6.70;;;3.00;73.40;;;;;;5035911;28;20033;-68
2022/03/07 00:41:04;;;;;;;11.00;6.90;;;3.00;73.50;;;;;;5035809;28;20030;-68
2022/03/07 00:43:30;;;;;;;9.30;6.32;;;3.00;73.80;;;;;;5036046;28;20091;-67
2022/03/07 00:45:55;;;;;;;10.03;7.67;;;2.90;73.80;;;;;;5034638;28;20045;-67
2022/03/07 00:48:21;;;;;;;8.03;6.50;;;2.90;73.80;;;;;;5034699;28;20029;-67
2022/03/07 00:50:49;;;;;;;8.43;6.50;;;2.90;74.20;;;;;;5035633;28;20025;-68
2022/03/07 00:53:21;;;;;;;10.00;6.40;;;2.80;75.00;;;;;;5035538;28;20032;-68
2022/03/07 00:55:46;;;;;;;13.20;6.25;;;2.90;74.40;;;;;;5035330;28;20071;-67
2022/03/07 00:58:12;;;;;;;9.43;6.10;;;2.80;74.50;;;;;;5035277;28;20478;-68
2022/03/07 01:00:39;;;;;;;10.55;6.97;;;2.80;74.80;;;;;;5035103;28;20045;-68
2022/03/07 01:03:05;;;;;;;;;;;2.80;75.00;;;;;;5035875;28;20076;-68
2022/03/07 01:05:31;;;;;;;8.23;6.10;;;2.80;75.00;;;;;;5034146;28;19941;-68
2022/03/07 01:07:57;;;;;;;9.52;6.13;;;2.70;75.20;;;;;;5035397;28;20052;-67
2022/03/07 01:10:23;;;;;;;12.50;6.80;;;2.70;75.30;;;;;;5035349;28;20076;-68
2022/03/07 01:12:49;;;;;;;9.98;6.28;;;2.70;75.50;;;;;;5033940;28;20672;-68
2022/03/07 01:15:15;;;;;;;;;;;2.70;76.10;;;;;;5034066;28;20033;-68
2022/03/07 01:17:41;;;;;;;14.00;7.43;;;2.60;75.70;;;;;;5034821;28;19928;-68
2022/03/07 01:20:08;;;;;;;11.48;7.22;;;2.60;75.90;;;;;;5034776;28;20079;-67
2022/03/07 01:22:34;;;;;;;8.88;6.20;;;2.60;76.00;;;;;;5033538;28;20030;-69
2022/03/07 01:25:00;;;;;;;8.27;6.20;;;2.60;76.20;;;;;;5033765;28;20051;-67
2022/03/07 01:27:26;;;;;;;11.15;7.30;;;2.50;76.40;;;;;;5034941;28;20037;-67
2022/03/07 01:29:51;;;;;;;9.93;6.67;;;2.50;76.80;;;;;;5034893;28;20022;-67
2022/03/07 01:32:17;;;;;;;8.90;6.23;;;2.50;77.20;;;;;;5049750;28;20017;-67
2022/03/07 01:34:42;;;;;;;8.60;6.33;;;2.40;77.40;;;;;;5033151;28;20044;-67
2022/03/07 01:37:08;;;;;;;9.43;6.20;;;2.40;77.60;;;;;;5034583;28;20488;-67
2022/03/07 01:39:34;;;;;;;10.20;6.50;;;2.40;77.90;;;;;;5049521;28;20022;-67
2022/03/07 01:42:00;;;;;;;9.57;6.23;;;2.40;78.20;;;;;;5036329;28;20060;-67
2022/03/07 01:44:29;;;;;;;12.70;7.07;;;2.40;78.60;;;;;;5042249;28;20079;-67
2022/03/07 01:46:56;;;;;;;9.85;6.30;;;2.40;78.80;;;;;;5040468;28;20021;-67
2022/03/07 01:49:25;;;;;;;9.70;6.55;;;2.30;79.00;;;;;;5035754;28;20075;-67
2022/03/07 01:51:52;;;;;;;10.55;6.50;;;2.30;79.30;;;;;;5037476;28;20022;-66
2022/03/07 01:54:19;;;;;;;10.15;6.47;;;2.30;79.70;;;;;;5032846;28;20040;-66
2022/03/07 01:56:48;;;;;;;9.18;6.00;;;2.20;80.00;;;;;;5033818;28;20021;-67
2022/03/07 01:59:16;;;;;;;12.70;6.30;;;2.20;80.30;;;;;;5033812;28;20021;-67
2022/03/07 02:01:43;;;;;;;9.07;6.43;;;2.20;80.90;;;;;;5034486;28;20033;-67
2022/03/07 02:04:09;;;;;;;9.52;6.70;;;2.10;81.70;;;;;;5033901;28;20032;-67
2022/03/07 02:06:35;;;;;;;9.25;6.18;;;2.10;81.30;;;;;;5032468;28;20025;-67
2022/03/07 02:09:01;;;;;;;;;;;2.10;81.60;;;;;;5032884;28;20027;-66
2022/03/07 02:11:26;;;;;;;12.07;7.05;;;2.00;81.90;;;;;;5033872;28;19909;-68
2022/03/07 02:13:53;;;;;;;10.57;6.27;;;2.00;82.30;;;;;;5034279;28;20053;-67
2022/03/07 02:16:20;;;;;;;9.32;6.00;;;1.90;82.70;;;;;;5032443;28;20026;-68
2022/03/07 02:18:47;;;;;;;9.05;6.38;;;1.90;83.20;;;;;;5033629;28;20030;-68
2022/03/07 02:21:19;;;;;;;10.27;6.13;;;1.90;83.40;;;;;;5032201;28;20485;-67
2022/03/07 02:23:45;;;;;;;9.50;6.32;;;1.80;83.60;;;;;;5033762;28;20050;-67
2022/03/07 02:26:16;;;;;;;11.30;6.72;;;1.80;83.90;;;;;;5033503;28;20017;-67
2022/03/07 02:28:44;;;;;;;9.90;7.15;;;1.70;84.80;;;;;;5032813;28;20029;-66
2022/03/07 02:31:10;;;;;;;11.40;6.50;;;1.60;84.80;;;;;;5032135;28;20025;-67
2022/03/07 02:33:36;;;;;;;8.98;6.10;;;1.60;85.20;;;;;;5033602;28;20025;-66
2022/03/07 02:36:03;;;;;;;9.80;6.50;;;1.50;85.40;;;;;;5033501;28;20496;-68
2022/03/07 02:38:29;;;;;;;9.10;6.05;;;1.50;85.80;;;;;;5033847;28;20360;-68
2022/03/07 02:40:55;;;;;;;10.70;6.32;;;1.50;86.00;;;;;;5033761;28;20385;-67
2022/03/07 02:43:21;;;;;;;13.40;6.50;;;1.40;86.50;;;;;;5048464;28;20025;-67
2022/03/07 02:45:47;;;;;;;11.75;6.80;;;1.40;86.60;;;;;;5031852;28;20443;-67
2022/03/07 02:48:13;;;;;;;9.93;6.50;;;1.30;86.90;;;;;;5031821;28;20032;-67
2022/03/07 02:50:39;;;;;;;8.30;5.60;;;1.30;86.80;;;;;;5033481;28;20021;-66
2022/03/07 02:53:05;;;;;;;9.07;6.15;;;1.30;86.90;;;;;;5033490;28;20314;-66
2022/03/07 02:55:32;;;;;;;8.50;5.88;;;1.20;86.90;;;;;;5033054;28;20037;-67
2022/03/07 02:57:57;;;;;;;10.57;6.32;;;1.20;86.80;;;;;;5032977;28;20029;-67
2022/03/07 03:00:23;;;;;;;8.80;5.67;;;1.20;87.10;;;;;;5033010;28;20108;-67
2022/03/07 03:02:49;;;;;;;11.03;6.73;;;1.10;86.80;;;;;;5033375;28;20025;-67
2022/03/07 03:05:15;;;;;;;9.90;6.45;;;1.10;87.50;;;;;;5032533;28;20823;-67
2022/03/07 03:07:41;;;;;;;8.35;6.22;;;1.10;86.80;;;;;;5048538;28;20029;-67
2022/03/07 03:10:07;;;;;;;9.05;6.43;;;1.00;87.30;;;;;;5048376;28;20025;-68
2022/03/07 03:12:33;;;;;;;12.40;7.18;;;1.00;87.70;;;;;;5031817;28;20029;-67
2022/03/07 03:14:59;;;;;;;9.20;6.05;;;1.00;88.20;;;;;;5031926;28;20402;-67
2022/03/07 03:17:26;;;;;;;10.37;6.67;;;0.90;88.20;;;;;;5048479;28;20398;-67
2022/03/07 03:19:52;;;;;;;11.23;6.50;;;0.90;88.30;;;;;;5032908;28;20021;-67
2022/03/07 03:22:19;;;;;;;11.50;6.45;;;0.90;88.60;;;;;;5048230;28;20041;-67
2022/03/07 03:24:46;;;;;;;10.30;6.63;;;0.80;88.30;;;;;;5048081;28;20064;-67
2022/03/07 03:27:12;;;;;;;10.95;6.50;;;0.80;88.30;;;;;;5033103;28;20025;-66
2022/03/07 03:29:37;;;;;;;9.60;6.28;;;0.80;88.30;;;;;;5033318;28;20033;-66
2022/03/07 03:32:03;;;;;;;9.43;6.47;;;0.70;88.60;;;;;;5032743;28;20418;-67
2022/03/07 03:34:29;;;;;;;9.88;6.60;;;0.70;88.60;;;;;;5032931;28;20028;-68
2022/03/07 03:36:54;;;;;;;9.07;6.17;;;0.70;88.80;;;;;;5033201;28;20037;-67
2022/03/07 03:39:20;;;;;;;12.77;6.57;;;0.60;89.00;;;;;;5033064;28;20041;-67
2022/03/07 03:41:46;;;;;;;9.53;6.50;;;0.60;89.30;;;;;;5033114;28;20028;-67
2022/03/07 03:44:11;;;;;;;12.47;6.63;;;0.50;89.40;;;;;;5032546;28;20036;-67
2022/03/07 03:46:37;;;;;;;10.43;6.97;;;0.50;89.30;;;;;;5032614;28;20076;-67
2022/03/07 03:49:03;;;;;;;14.60;7.23;;;0.40;89.80;;;;;;5032779;28;20104;-67
2022/03/07 03:51:29;;;;;;;10.50;7.20;;;0.40;90.10;;;;;;5032497;28;20469;-68
2022/03/07 03:53:55;;;;;;;13.15;7.65;;;0.40;90.50;;;;;;5032561;28;20116;-67
2022/03/07 03:56:20;;;;;;;10.18;6.75;;;0.40;90.70;;;;;;5032730;28;20065;-67
2022/03/07 03:58:46;;;;;;;9.70;7.57;;;0.30;91.00;;;;;;5032518;28;20366;-67
2022/03/07 04:01:11;;;;;;;12.43;7.27;;;0.30;91.60;;;;;;5031266;28;20037;-67
2022/03/07 04:03:37;;;;;;;9.67;6.77;;;0.30;91.60;;;;;;5032489;28;20021;-67
2022/03/07 04:06:04;;;;;;;9.60;6.37;;;0.30;92.10;;;;;;5032583;28;20026;-67
2022/03/07 04:08:43;;;;;;;9.48;6.50;;;0.30;92.60;;;;;;5047940;28;20564;-67
2022/03/07 04:11:09;;;;;;;10.18;6.32;;;0.20;93.20;;;;;;5033504;28;20032;-67
2022/03/07 04:13:35;;;;;;;11.60;7.38;;;0.20;93.60;;;;;;5051357;28;20112;-67
2022/03/07 04:16:00;;;;;;;11.37;6.57;;;0.20;94.20;;;;;;5036589;28;20415;-67
2022/03/07 04:18:26;;;;;;;13.17;7.03;;;0.10;94.80;;;;;;5036954;28;20033;-67
2022/03/07 04:20:52;;;;;;;11.53;7.13;;;0.20;95.20;;;;;;5051552;28;20041;-67
2022/03/07 04:23:20;;;;;;;12.07;6.93;;;0.10;95.70;;;;;;5036070;28;20493;-67
2022/03/07 04:25:48;;;;;;;11.70;6.95;;;0.10;96.10;;;;;;5051591;28;20473;-67
2022/03/07 04:28:13;;;;;;;12.50;6.80;;;0.10;96.70;;;;;;5051011;28;20386;-67
2022/03/07 04:30:39;;;;;;;11.55;6.65;;;0.10;97.10;;;;;;5035667;28;20022;-67
2022/03/07 04:33:05;;;;;;;9.13;6.15;;;0.00;97.50;;;;;;5035685;28;20048;-67
2022/03/07 04:35:31;;;;;;;7.73;5.53;;;0.00;97.90;;;;;;5035505;28;20033;-67
2022/03/07 04:37:56;;;;;;;9.77;5.60;;;0.00;98.20;;;;;;5035710;28;20021;-67
2022/03/07 04:40:22;;;;;;;8.97;5.63;;;0.00;98.50;;;;;;5035430;28;20026;-67
2022/03/07 04:42:48;;;;;;;9.87;5.87;;;0.00;99.00;;;;;;5035513;28;20018;-67
2022/03/07 04:45:14;;;;;;;10.67;6.17;;;0.00;99.00;;;;;;5051374;28;20025;-67
2022/03/07 04:47:41;;;;;;;9.30;5.55;;;0.00;99.40;;;;;;5039533;28;20043;-67
2022/03/07 04:50:08;;;;;;;8.77;5.10;;;-0.10;99.50;;;;;;5044520;28;20026;-67
2022/03/07 04:52:34;;;;;;;10.75;6.00;;;-0.10;99.80;;;;;;5035956;28;20033;-66
2022/03/07 04:54:59;;;;;;;7.57;5.30;;;-0.10;99.90;;;;;;5035383;28;20029;-67
2022/03/07 04:57:25;;;;;;;7.40;5.30;;;-0.10;99.90;;;;;;5035212;28;20108;-67
2022/03/07 04:59:51;;;;;;;9.32;5.63;;;-0.10;99.90;;;;;;5035238;28;20052;-67
2022/03/07 05:02:17;;;;;;;10.93;4.93;;;-0.20;99.90;;;;;;5033643;28;20440;-67
2022/03/07 05:04:42;;;;;;;8.33;5.60;;;-0.10;99.90;;;;;;5034893;28;20367;-65
2022/03/07 05:07:08;;;;;;;7.40;5.10;;;-0.20;99.90;;;;;;5034878;28;20629;-64
2022/03/07 05:09:34;;;;;;;6.90;4.77;;;-0.10;99.90;;;;;;5034734;28;20018;-62
2022/03/07 05:12:00;;;;;;;9.70;5.05;;;-0.20;99.90;;;;;;5034954;28;20026;-64
2022/03/07 05:14:26;;;;;;;9.03;4.93;;;-0.20;99.90;;;;;;5033556;28;20036;-68
2022/03/07 05:16:52;;;;;;;8.73;5.03;;;-0.20;99.90;;;;;;5034712;28;20267;-66
2022/03/07 05:19:18;;;;;;;9.27;4.73;;;-0.30;99.90;;;;;;5033587;28;20029;-68
2022/03/07 05:21:43;;;;;;;8.35;5.53;;;-0.30;99.90;;;;;;5033274;28;20500;-65
2022/03/07 05:24:09;;;;;;;8.05;4.63;;;-0.30;99.90;;;;;;5034991;28;20061;-67
2022/03/07 05:26:36;;;;;;;7.47;4.90;;;-0.30;99.90;;;;;;5033284;28;20398;-69
2022/03/07 05:29:03;;;;;;;7.50;4.50;;;-0.30;99.90;;;;;;5033383;28;20033;-67
2022/03/07 05:31:29;;;;;;;7.75;4.55;;;-0.40;99.90;;;;;;5034993;28;20021;-66
2022/03/07 05:33:54;;;;;;;7.93;4.40;;;-0.30;99.90;;;;;;5034909;28;20094;-66
2022/03/07 05:36:20;;;;;;;6.63;4.40;;;-0.30;99.90;;;;;;5033350;28;20033;-67
2022/03/07 05:38:46;;;;;;;8.10;4.70;;;-0.40;99.90;;;;;;5034291;28;20394;-67
2022/03/07 05:41:11;;;;;;;6.73;4.43;;;-0.30;99.90;;;;;;5049749;28;20617;-67
2022/03/07 05:43:37;;;;;;;8.60;4.90;;;-0.40;99.90;;;;;;5034426;28;20100;-66
2022/03/07 05:46:03;;;;;;;6.90;4.27;;;-0.40;99.90;;;;;;5034376;28;20428;-67
2022/03/07 05:48:28;;;;;;;7.80;4.57;;;-0.40;99.90;;;;;;5033535;28;20022;-66
2022/03/07 05:50:54;;;;;;;7.77;4.43;;;-0.40;99.90;;;;;;5034348;28;20430;-67
2022/03/07 05:53:22;;;;;;;6.67;4.43;;;-0.40;99.90;;;;;;5035054;28;20022;-67
2022/03/07 05:55:49;;;;;;;7.05;4.60;;;-0.50;99.90;;;;;;5034439;28;20332;-67
2022/03/07 05:58:16;;;;;;;8.63;4.43;;;-0.50;99.90;;;;;;5034391;28;20104;-67
2022/03/07 06:00:42;;;;;;;6.95;4.35;;;-0.50;99.90;;;;;;5034349;28;20076;-67
2022/03/07 06:03:08;;;;;;;8.63;4.40;;;-0.50;99.90;;;;;;5034271;28;20482;-66
2022/03/07 06:05:33;;;;;;;7.93;4.90;;;-0.50;99.90;;;;;;5049348;28;20424;-67
2022/03/07 06:08:00;;;;;;;7.35;4.50;;;-0.50;99.90;;;;;;5034304;28;20018;-67
2022/03/07 06:10:25;;;;;;;7.55;4.53;;;-0.50;99.90;;;;;;5033899;28;20076;-67
2022/03/07 06:12:51;;;;;;;7.15;4.45;;;-0.50;99.90;;;;;;5034005;28;20478;-66
2022/03/07 06:15:17;;;;;;;10.23;4.67;;;-0.50;99.90;;;;;;5033974;28;20096;-67
2022/03/07 06:17:51;;;;;;;9.20;5.43;;;-0.50;99.90;;;;;;5032548;28;20123;-67
2022/03/07 06:20:17;;;;;;;8.68;4.53;;;-0.50;99.90;;;;;;5033326;28;20021;-66
2022/03/07 06:22:43;;;;;;;7.53;4.47;;;-0.50;99.90;;;;;;5033747;28;20516;-66
2022/03/07 06:25:09;;;;;;;9.50;5.37;;;-0.40;99.90;;;;;;5032447;28;20069;-67
2022/03/07 06:27:34;;;;;;;9.68;4.80;;;-0.40;99.90;;;;;;5033532;28;20469;-67
2022/03/07 06:30:00;;;;;;;16.20;7.43;;;-0.40;99.90;;;;;;5033401;28;20033;-67
2022/03/07 06:32:26;;;;;;;7.50;4.40;;;-0.40;99.90;;;;;;5049085;28;20052;-67
2022/03/07 06:34:52;;;;;;;10.75;4.72;;;-0.40;99.80;;;;;;5032636;28;20520;-66
2022/03/07 06:37:17;;;;;;;7.10;4.43;;;-0.30;99.70;;;;;;5034194;28;20025;-66
2022/03/07 06:39:43;;;;;;;7.30;4.90;;;-0.40;99.60;;;;;;5033545;28;20033;-66
2022/03/07 06:42:10;;;;;;;7.85;4.97;;;-0.30;99.50;;;;;;5034016;28;20071;-66
2022/03/07 06:44:39;;;;;;;8.73;5.53;;;-0.30;99.20;;;;;;5036592;28;20034;-67
2022/03/07 06:47:09;;;;;;;6.68;4.30;;;-0.30;99.10;;;;;;5034445;28;20045;-66
2022/03/07 06:49:35;;;;;;;7.03;4.50;;;-0.20;99.20;;;;;;5034749;28;20029;-67
2022/03/07 06:52:02;;;;;;;8.18;4.60;;;-0.20;99.10;;;;;;5034409;28;20084;-67
2022/03/07 06:54:28;;;;;;;11.48;5.20;;;-0.10;99.10;;;;;;5033204;28;20030;-67
2022/03/07 06:56:54;;;;;;;7.75;4.55;;;-0.10;98.60;;;;;;5049003;28;20564;-67
2022/03/07 06:59:20;;;;;;;6.45;4.45;;;-0.10;98.60;;;;;;5049225;28;20568;-67
2022/03/07 07:01:45;;;;;;;7.90;5.07;;;0.00;98.50;;;;;;5033608;28;20022;-67
2022/03/07 07:04:11;;;;;;;10.53;4.87;;;0.00;98.10;;;;;;5034100;28;20044;-65
2022/03/07 07:06:37;;;;;;;7.88;4.60;;;0.10;97.90;;;;;;5034528;28;20048;-66
2022/03/07 07:09:03;;;;;;;7.27;4.80;;;0.10;97.90;;;;;;5034504;28;20423;-66
2022/03/07 07:11:29;;;;;;;9.70;4.75;;;0.20;97.90;;;;;;5034071;28;20462;-68
2022/03/07 07:13:55;;;;;;;8.60;5.47;;;0.20;97.60;;;;;;5033806;28;20042;-67
2022/03/07 07:16:20;;;;;;;8.80;5.50;;;0.30;97.20;;;;;;5033624;28;20634;-67
2022/03/07 07:18:46;;;;;;;7.60;4.83;;;0.30;97.70;;;;;;5048586;28;20194;-67
2022/03/07 07:21:12;;;;;;;10.00;5.67;;;0.30;97.10;;;;;;5032601;28;20137;-66
2022/03/07 07:23:37;;;;;;;8.93;5.13;;;0.40;96.80;;;;;;5049720;28;20029;-66
2022/03/07 07:26:04;;;;;;;9.17;5.00;;;0.50;96.60;;;;;;5049666;28;20429;-67
2022/03/07 07:28:30;;;;;;;10.32;4.85;;;0.50;96.40;;;;;;5037007;28;20029;-67
2022/03/07 07:30:55;;;;;;;9.50;5.40;;;0.50;96.20;;;;;;5033901;28;20033;-67
2022/03/07 07:33:21;;;;;;;9.77;5.60;;;0.60;96.10;;;;;;5034285;28;20025;-67
2022/03/07 07:35:47;;;;;;;7.90;5.53;;;0.70;95.90;;;;;;5033672;28;20705;-67
2022/03/07 07:38:13;;;;;;;7.93;5.03;;;0.70;95.70;;;;;;5034779;28;20017;-67
2022/03/07 07:40:39;;;;;;;9.23;5.68;;;0.80;95.20;;;;;;5048467;28;20029;-66
2022/03/07 07:43:04;;;;;;;11.48;5.40;;;0.80;95.20;;;;;;5033094;28;20478;-65
2022/03/07 07:45:30;;;;;;;16.50;6.60;;;0.90;95.20;;;;;;5032611;28;20058;-66
2022/03/07 07:47:58;;;;;;;9.70;5.80;;;0.90;94.80;;;;;;5036977;28;20489;-67
2022/03/07 07:50:23;;;;;;;19.42;5.90;;;1.00;94.70;;;;;;5055471;28;20036;-69
2022/03/07 07:52:49;;;;;;;9.53;5.63;;;1.10;94.50;;;;;;5043380;28;20022;-68
2022/03/07 07:55:15;;;;;;;10.03;5.70;;;1.20;94.10;;;;;;5054143;28;20053;-68
2022/03/07 07:57:40;;;;;;;9.77;5.33;;;1.20;93.50;;;;;;5037863;28;20104;-69
2022/03/07 08:00:07;;;;;;;10.03;5.50;;;1.20;92.60;;;;;;5052183;28;20101;-69
2022/03/07 08:02:33;;;;;;;10.30;5.05;;;1.20;92.70;;;;;;5036486;28;20030;-67
2022/03/07 08:04:59;;;;;;;8.85;5.75;;;1.20;92.50;;;;;;5036530;28;20075;-67
2022/03/07 08:07:25;;;;;;;12.00;6.00;;;1.30;92.10;;;;;;5036006;28;20026;-67
2022/03/07 08:09:51;;;;;;;9.65;6.25;;;1.40;91.90;;;;;;5036411;28;20030;-68
2022/03/07 08:12:18;;;;;;;9.63;6.18;;;1.50;91.70;;;;;;5051195;28;20029;-68
2022/03/07 08:14:45;;;;;;;10.90;6.32;;;1.60;91.30;;;;;;5035850;28;20164;-68
2022/03/07 08:17:11;;;;;;;10.05;5.60;;;1.60;91.00;;;;;;5036271;28;20514;-68
2022/03/07 08:19:38;;;;;;;11.55;5.70;;;1.60;90.50;;;;;;5035797;28;20030;-68
2022/03/07 08:22:03;;;;;;;;;;;1.60;90.60;;;;;;5035282;28;20112;-68
2022/03/07 08:24:29;;;;;;;12.18;5.72;;;1.70;90.60;;;;;;5036668;28;20432;-68
2022/03/07 08:26:54;;;;;;;10.37;6.07;;;1.80;90.50;;;;;;5036827;28;20490;-69
2022/03/07 08:29:20;;;;;;;10.73;6.30;;;1.90;90.30;;;;;;5036126;28;20489;-68
2022/03/07 08:31:46;;;;;;;11.77;6.10;;;2.00;90.00;;;;;;5036901;28;20041;-68
2022/03/07 08:34:11;;;;;;;10.40;6.30;;;2.00;89.60;;;;;;5036043;28;20543;-68
2022/03/07 08:36:37;;;;;;;10.23;6.17;;;2.00;89.20;;;;;;5035047;28;20057;-68
2022/03/07 08:39:04;;;;;;;10.03;6.23;;;2.00;89.10;;;;;;5036198;28;20033;-68
2022/03/07 08:41:29;;;;;;;12.88;6.60;;;1.90;89.60;;;;;;5051121;28;20033;-68
2022/03/07 08:43:55;;;;;;;11.27;7.00;;;2.00;90.00;;;;;;5036010;28;20029;-67
2022/03/07 08:46:22;;;;;;;15.37;7.53;;;2.10;89.30;;;;;;5051786;28;20493;-69
2022/03/07 08:48:47;;;;;;;15.75;6.75;;;2.20;89.20;;;;;;5034675;28;20045;-68
2022/03/07 08:51:13;;;;;;;12.17;6.97;;;2.20;88.80;;;;;;5035614;28;20080;-67
2022/03/07 08:53:39;;;;;;;11.15;7.60;;;2.30;88.60;;;;;;5034328;28;20025;-67
2022/03/07 08:56:04;;;;;;;17.27;7.13;;;2.40;88.30;;;;;;5035834;28;20034;-68
2022/03/07 08:58:30;;;;;;;11.73;7.67;;;2.40;87.70;;;;;;5035414;28;20107;-68
2022/03/07 09:00:56;;;;;;;14.20;7.43;;;2.40;87.80;;;;;;5034452;28;20053;-69
2022/03/07 09:03:21;;;;;;;14.30;7.17;;;2.50;87.80;;;;;;5035521;28;20267;-68
2022/03/07 09:05:47;;;;;;;11.83;7.03;;;2.50;86.80;;;;;;5035814;28;20027;-68
2022/03/07 09:08:13;;;;;;;13.03;7.67;;;2.40;87.40;;;;;;5034036;28;20028;-68
2022/03/07 09:10:38;;;;;;;12.33;7.47;;;2.50;88.30;;;;;;5050549;28;20032;-67
2022/03/07 09:13:04;;;;;;;14.53;6.80;;;2.70;87.90;;;;;;5035034;28;20017;-66
2022/03/07 09:15:30;;;;;;;14.63;7.13;;;2.70;86.80;;;;;;5035137;28;20032;-67
2022/03/07 09:17:56;;;;;;;16.47;7.73;;;2.80;86.10;;;;;;5034597;28;20372;-67
2022/03/07 09:20:24;;;;;;;13.23;7.63;;;2.90;85.10;;;;;;5034376;28;20108;-67
2022/03/07 09:22:50;;;;;;;15.07;7.50;;;3.00;85.10;;;;;;5034368;28;20033;-66
2022/03/07 09:25:19;;;;;;;10.83;7.30;;;3.40;83.60;;;;;;5035435;28;20156;-67
2022/03/07 09:27:45;;;;;;;11.30;6.85;;;4.90;78.70;;;;;;5050645;28;20111;-67
2022/03/07 09:30:12;;;;;;;;;;;6.10;73.10;;;;;;5051341;28;20029;-66
2022/03/07 09:32:38;;;;;;;9.80;7.05;;;6.80;69.50;;;;;;5034394;28;19905;-66
2022/03/07 09:35:04;;;;;;;14.03;7.20;;;7.30;67.80;;;;;;5035082;28;20478;-67
2022/03/07 09:37:29;;;;;;;10.63;7.22;;;8.10;65.50;;;;;;5034678;28;20036;-66
2022/03/07 09:39:55;;;;;;;12.13;7.27;;;8.50;63.70;;;;;;5034768;28;20029;-67
2022/03/07 09:42:21;;;;;;;10.45;7.15;;;8.80;61.60;;;;;;5034311;28;20279;-66
2022/03/07 09:44:48;;;;;;;9.77;7.20;;;8.80;61.30;;;;;;5034397;28;20025;-66
2022/03/07 09:47:14;;;;;;;12.55;7.40;;;9.00;60.60;;;;;;5034592;28;20470;-66
2022/03/07 09:49:43;;;;;;;9.20;7.15;;;9.30;59.80;;;;;;5035020;28;20559;-67
2022/03/07 09:52:10;;;;;;;12.18;7.82;;;10.00;57.80;;;;;;5035087;28;20104;-66
2022/03/07 09:54:36;;;;;;;9.30;7.35;;;9.90;57.50;;;;;;5034278;28;20068;-67
2022/03/07 09:57:02;;;;;;;9.55;7.57;;;10.00;56.60;;;;;;5034632;28;20061;-66
2022/03/07 09:59:30;;;;;;;10.38;7.32;;;9.60;56.90;;;;;;5034209;28;20351;-68
2022/03/07 10:02:14;;;;;;;10.82;7.63;;;9.10;57.50;;;;;;5034160;28;20116;-66
2022/03/07 10:04:42;;;;;;;12.77;7.90;;;9.40;57.60;;;;;;5032826;28;20036;-66
2022/03/07 10:07:08;;;;;;;11.50;7.38;;;10.60;55.70;;;;;;5034305;28;20026;-66
2022/03/07 10:09:44;;;;;;;10.40;7.72;;;10.60;55.10;;;;;;5033867;28;20167;-67
2022/03/07 10:12:11;;;;;;;10.38;7.32;;;10.30;55.30;;;;;;5034428;28;20013;-66
2022/03/07 10:14:45;;;;;;;11.35;7.50;;;9.70;55.80;;;;;;5032803;28;20056;-66
2022/03/07 10:17:30;;;;;;;9.85;7.95;;;9.20;55.80;;;;;;5034295;28;20029;-69
2022/03/07 10:20:03;;;;;;;10.25;7.30;;;9.20;56.40;;;;;;5033899;28;20065;-66
2022/03/07 10:22:29;;;;;;;11.68;7.90;;;8.80;56.50;;;;;;5032398;28;20055;-67
2022/03/07 10:25:01;;;;;;;9.82;7.43;;;8.60;57.50;;;;;;5034209;28;20450;-69
2022/03/07 10:27:29;;;;;;;9.52;7.07;;;9.20;56.10;;;;;;5033434;28;20481;-69
2022/03/07 10:29:55;;;;;;;9.98;7.35;;;9.70;54.90;;;;;;5033450;28;20029;-68
2022/03/07 10:32:21;;;;;;;12.18;7.70;;;9.60;54.40;;;;;;5033077;28;20029;-68
2022/03/07 10:34:47;;;;;;;10.05;7.00;;;10.20;53.50;;;;;;5048679;28;20037;-68
2022/03/07 10:37:13;;;;;;;9.77;7.35;;;10.10;53.40;;;;;;5048575;28;20075;-67
2022/03/07 10:39:46;;;;;;;11.70;7.73;;;10.30;52.70;;;;;;5033624;28;20029;-67
2022/03/07 10:42:19;;;;;;;10.30;7.75;;;10.50;53.20;;;;;;5032195;28;20539;-67
2022/03/07 10:44:46;;;;;;;9.10;7.45;;;10.70;52.50;;;;;;5031323;28;20026;-67
2022/03/07 10:47:18;;;;;;;11.25;8.00;;;9.80;54.20;;;;;;5032996;28;20423;-68
2022/03/07 10:49:51;;;;;;;10.90;7.55;;;9.10;54.90;;;;;;5034073;28;20017;-68
2022/03/07 10:52:18;;;;;;;12.10;7.50;;;9.60;54.60;;;;;;5035969;28;20036;-68
2022/03/07 10:54:44;;;;;;;10.45;7.50;;;9.50;54.10;;;;;;5034331;28;20389;-67
2022/03/07 10:57:10;;;;;;;13.35;8.07;;;9.90;53.30;;;;;;5032149;28;20112;-67
2022/03/07 10:59:37;;;;;;;10.65;7.35;;;9.50;54.10;;;;;;5033344;28;20025;-67
2022/03/07 11:02:09;;;;;;;9.95;7.55;;;10.10;53.20;;;;;;5033010;28;20030;-68
2022/03/07 11:04:37;;;;;;;10.80;8.05;;;10.60;52.30;;;;;;5033241;28;20028;-68
2022/03/07 11:07:03;;;;;;;8.43;7.03;;;11.90;51.40;;;;;;5033425;28;20045;-68
2022/03/07 11:09:29;;;;;;;10.18;7.38;;;12.00;49.90;;;;;;5033717;28;20513;-68
2022/03/07 11:11:55;;;;;;;8.77;7.40;;;10.20;51.40;;;;;;5033472;28;20096;-68
2022/03/07 11:14:21;;;;;;;11.73;7.87;;;8.20;54.10;;;;;;5033209;28;20425;-68
2022/03/07 11:16:49;;;;;;;11.75;8.27;;;7.50;55.60;;;;;;5033059;28;20725;-69
2022/03/07 11:19:18;;;;;;;10.60;7.97;;;6.90;56.90;;;;;;5033336;28;20032;-68
2022/03/07 11:21:46;;;;;;;10.80;8.77;;;6.30;58.30;;;;;;5036818;28;20025;-68
2022/03/07 11:24:12;;;;;;;10.93;7.78;;;5.70;59.10;;;;;;5036327;28;20125;-69
2022/03/07 11:26:42;;;;;;;10.65;8.00;;;5.30;60.40;;;;;;5037840;28;20147;-68
2022/03/07 11:29:08;;;;;;;12.27;8.32;;;5.10;61.30;;;;;;5036283;28;20167;-69
2022/03/07 11:31:35;;;;;;;16.40;7.82;;;4.90;61.80;;;;;;5036456;28;20188;-68
2022/03/07 11:34:08;;;;;;;12.40;8.02;;;4.70;62.20;;;;;;5036072;28;20044;-68
2022/03/07 11:36:37;;;;;;;12.60;7.85;;;4.50;62.70;;;;;;5036132;28;20113;-68
2022/03/07 11:39:04;;;;;;;12.18;7.72;;;4.30;62.80;;;;;;5037599;28;20076;-68
2022/03/07 11:41:38;;;;;;;16.23;8.07;;;4.20;62.90;;;;;;5037031;28;20502;-69
2022/03/07 11:44:09;;;;;;;14.43;8.27;;;4.20;63.40;;;;;;5037636;28;20033;-69
2022/03/07 11:46:45;;;;;;;13.13;8.02;;;4.40;63.30;;;;;;5037546;28;20470;-68
2022/03/07 11:49:26;;;;;;;13.43;8.75;;;4.50;62.90;;;;;;5036935;28;20021;-67
2022/03/07 11:52:04;;;;;;;11.35;7.78;;;4.60;63.00;;;;;;5051929;28;20125;-68
2022/03/07 11:54:30;;;;;;;12.75;8.40;;;4.60;62.90;;;;;;5036547;28;20124;-67
2022/03/07 11:57:07;;;;;;;12.82;8.23;;;4.60;62.80;;;;;;5036441;28;20025;-68
2022/03/07 11:59:33;;;;;;;13.38;8.05;;;4.60;63.40;;;;;;5036580;28;20025;-69
2022/03/07 12:01:59;;;;;;;14.07;8.23;;;4.50;63.70;;;;;;5052856;28;20036;-71
2022/03/07 12:04:24;;;;;;;13.30;8.67;;;4.40;64.00;;;;;;5038156;28;20307;-71
2022/03/07 12:06:53;;;;;;;12.53;8.27;;;4.60;63.70;;;;;;5037666;28;20025;-71
2022/03/07 12:09:36;;;;;;;13.88;8.18;;;4.80;63.60;;;;;;5036504;28;20044;-70
2022/03/07 12:12:07;;;;;;;10.15;7.20;;;5.00;62.70;;;;;;5036505;28;20136;-69
2022/03/07 12:14:36;;;;;;;12.20;7.68;;;4.90;62.30;;;;;;5036330;28;20079;-69
2022/03/07 12:17:11;;;;;;;11.88;8.00;;;4.90;62.60;;;;;;5035958;28;20083;-70
2022/03/07 12:19:37;;;;;;;13.02;8.10;;;4.90;63.10;;;;;;5036056;28;20033;-70
2022/03/07 12:22:31;;;;;;;13.88;8.10;;;5.10;62.50;;;;;;5034460;28;20041;-70
2022/03/07 12:24:58;;;;;;;12.30;8.35;;;5.20;62.40;;;;;;5032405;28;20040;-70
2022/03/07 12:27:25;;;;;;;11.65;8.00;;;5.20;62.40;;;;;;5035673;28;20018;-69
2022/03/07 12:29:51;;;;;;;13.30;8.25;;;5.10;62.70;;;;;;5034684;28;20033;-69
2022/03/07 12:32:17;;;;;;;;;;;5.10;62.20;;;;;;5034181;28;20025;-69
2022/03/07 12:34:45;;;;;;;12.07;8.13;;;5.00;61.70;;;;;;5035822;28;19963;-69
2022/03/07 12:37:18;;;;;;;11.90;8.18;;;4.80;62.10;;;;;;5036398;28;20030;-69
2022/03/07 12:39:48;;;;;;;11.60;8.40;;;4.90;62.70;;;;;;5035612;28;20056;-70
2022/03/07 12:42:16;;;;;;;13.45;8.10;;;4.80;62.50;;;;;;5034899;28;20029;-70
2022/03/07 12:44:42;;;;;;;12.30;7.85;;;4.90;62.30;;;;;;5034759;28;20036;-71
2022/03/07 12:47:09;;;;;;;14.45;8.35;;;5.00;62.10;;;;;;5035150;28;20022;-70
2022/03/07 12:49:36;;;;;;;12.05;8.07;;;5.00;61.80;;;;;;5036022;28;20026;-69